Time;durP1;ratioP1;P1;durP2;ratioP2;P2;SDS_P1;SDS_P2;PMS_P1;PMS_P2;Temp;Humidity;BMP_temperature;BMP_pressure;BME280_temperature;BME280_humidity;BME280_pressure;Samples;Min_cycle;Max_cycle;Signal;HPM_P1;HPM_P2
2022/03/25 00:00:49;;;;;;;47.50;25.53;;;9.10;90.40;;;;;;5026624;28;21037;-70
2022/03/25 00:03:17;;;;;;;52.80;27.20;;;9.10;90.50;;;;;;5024012;28;20457;-70
2022/03/25 00:05:43;;;;;;;53.10;26.90;;;9.10;90.70;;;;;;5026301;28;20544;-70
2022/03/25 00:08:10;;;;;;;62.30;28.80;;;9.00;90.80;;;;;;5030833;28;20830;-70
2022/03/25 00:10:37;;;;;;;56.43;26.97;;;9.00;90.90;;;;;;5030666;28;20968;-71
2022/03/25 00:13:05;;;;;;;57.07;27.63;;;9.00;91.00;;;;;;5022737;28;20515;-70
2022/03/25 00:15:31;;;;;;;53.33;25.83;;;8.90;91.00;;;;;;5030337;28;20481;-70
2022/03/25 00:17:59;;;;;;;49.83;26.00;;;8.90;91.10;;;;;;5030300;28;20520;-70
2022/03/25 00:20:26;;;;;;;50.47;27.20;;;8.90;91.20;;;;;;5027522;28;20453;-70
2022/03/25 00:22:53;;;;;;;54.47;27.43;;;8.80;91.20;;;;;;5030094;28;20999;-71
2022/03/25 00:25:20;;;;;;;47.10;25.60;;;8.80;91.40;;;;;;5030860;28;20446;-70
2022/03/25 00:27:46;;;;;;;51.70;26.83;;;8.80;91.80;;;;;;5028085;28;20503;-70
2022/03/25 00:30:13;;;;;;;50.90;26.80;;;8.70;91.60;;;;;;5030747;28;20970;-70
2022/03/25 00:32:40;;;;;;;64.43;27.40;;;8.70;91.70;;;;;;5027496;28;20571;-70
2022/03/25 00:35:10;;;;;;;53.90;26.93;;;8.70;91.80;;;;;;5030194;28;20453;-70
2022/03/25 00:37:37;;;;;;;56.23;27.20;;;8.60;91.90;;;;;;5029675;28;20513;-70
2022/03/25 00:40:04;;;;;;;53.00;25.87;;;8.60;92.00;;;;;;5029609;28;20503;-70
2022/03/25 00:42:31;;;;;;;53.87;26.30;;;8.60;91.90;;;;;;5023127;28;21029;-70
2022/03/25 00:45:01;;;;;;;48.97;24.97;;;8.60;92.00;;;;;;5027962;28;20499;-70
2022/03/25 00:47:28;;;;;;;56.80;27.47;;;8.60;92.10;;;;;;5029639;28;20477;-70
2022/03/25 00:49:54;;;;;;;57.90;25.97;;;8.60;92.30;;;;;;5029777;28;20449;-70
2022/03/25 00:52:22;;;;;;;55.80;27.00;;;8.50;92.20;;;;;;5029507;28;20842;-70
2022/03/25 00:54:50;;;;;;;50.97;25.77;;;8.50;92.40;;;;;;5029664;28;20464;-70
2022/03/25 00:57:17;;;;;;;58.73;26.80;;;8.50;92.50;;;;;;5029423;28;20563;-70
2022/03/25 00:59:44;;;;;;;51.87;25.20;;;8.50;92.60;;;;;;5029537;28;20454;-70
2022/03/25 01:02:10;;;;;;;52.87;26.03;;;8.40;92.70;;;;;;5029513;28;20453;-70
2022/03/25 01:04:37;;;;;;;52.87;25.00;;;8.40;92.80;;;;;;5029685;28;20507;-70
2022/03/25 01:07:04;;;;;;;71.37;26.57;;;8.30;92.80;;;;;;5032088;28;20523;-70
2022/03/25 01:09:32;;;;;;;52.50;26.60;;;8.30;92.80;;;;;;5033214;28;20957;-71
2022/03/25 01:11:59;;;;;;;60.03;27.40;;;8.30;93.00;;;;;;5031317;28;20500;-71
2022/03/25 01:14:27;;;;;;;56.27;30.00;;;8.30;93.00;;;;;;5031675;28;20449;-70
2022/03/25 01:16:53;;;;;;;54.20;28.50;;;8.30;93.20;;;;;;5033534;28;20483;-70
2022/03/25 01:19:20;;;;;;;53.70;25.13;;;8.20;93.20;;;;;;5031014;28;20958;-70
2022/03/25 01:21:47;;;;;;;52.10;27.03;;;8.20;93.30;;;;;;5030416;28;20468;-70
2022/03/25 01:24:14;;;;;;;53.20;26.50;;;8.20;93.50;;;;;;5031206;28;20507;-70
2022/03/25 01:26:42;;;;;;;55.40;26.90;;;8.20;93.60;;;;;;5029164;28;20449;-70
2022/03/25 01:29:09;;;;;;;54.67;26.90;;;8.20;93.70;;;;;;5021949;28;20450;-70
2022/03/25 01:31:35;;;;;;;60.00;27.30;;;8.10;93.70;;;;;;5027946;28;20885;-70
2022/03/25 01:34:02;;;;;;;57.80;26.60;;;8.10;93.80;;;;;;5032158;28;20453;-70
2022/03/25 01:36:30;;;;;;;56.30;26.13;;;8.10;94.20;;;;;;5029100;28;20511;-70
2022/03/25 01:38:57;;;;;;;54.23;27.27;;;8.00;94.00;;;;;;5032627;28;21040;-70
2022/03/25 01:41:23;;;;;;;53.70;26.20;;;8.00;94.20;;;;;;5027354;28;21059;-70
2022/03/25 01:43:55;;;;;;;50.80;27.40;;;8.00;94.30;;;;;;5032798;28;20461;-70
2022/03/25 01:46:22;;;;;;;54.00;27.57;;;7.90;94.40;;;;;;5033126;28;20508;-70
2022/03/25 01:48:48;;;;;;;55.40;26.63;;;7.80;94.50;;;;;;5032877;28;20473;-70
2022/03/25 01:51:17;;;;;;;57.00;26.47;;;7.80;94.70;;;;;;5028879;28;20503;-70
2022/03/25 01:53:44;;;;;;;49.60;26.00;;;7.70;94.80;;;;;;5029032;28;20454;-70
2022/03/25 01:56:12;;;;;;;54.10;27.60;;;7.70;94.80;;;;;;5030529;28;20550;-70
2022/03/25 01:58:41;;;;;;;52.80;25.17;;;7.70;95.00;;;;;;5033003;28;20509;-70
2022/03/25 02:01:09;;;;;;;51.63;25.43;;;7.70;95.00;;;;;;5023367;28;20823;-70
2022/03/25 02:03:35;;;;;;;53.17;25.27;;;7.60;95.10;;;;;;5026700;28;20453;-70
2022/03/25 02:06:04;;;;;;;53.50;25.97;;;7.60;95.30;;;;;;5032431;28;20460;-70
2022/03/25 02:08:30;;;;;;;52.33;25.03;;;7.60;95.50;;;;;;5031522;28;20815;-70
2022/03/25 02:10:57;;;;;;;57.50;25.40;;;7.60;95.60;;;;;;5031488;28;20515;-70
2022/03/25 02:13:24;;;;;;;50.83;24.10;;;7.60;95.70;;;;;;5032105;28;20449;-70
2022/03/25 02:15:52;;;;;;;55.00;24.83;;;7.50;95.70;;;;;;5032363;28;20481;-70
2022/03/25 02:18:20;;;;;;;56.63;25.10;;;7.50;95.90;;;;;;5030663;28;20485;-70
2022/03/25 02:20:48;;;;;;;49.00;25.33;;;7.50;96.00;;;;;;5029416;28;20473;-70
2022/03/25 02:23:17;;;;;;;49.30;23.87;;;7.50;96.10;;;;;;5031420;28;20503;-70
2022/03/25 02:25:44;;;;;;;58.10;25.43;;;7.50;96.10;;;;;;5031888;28;20457;-70
2022/03/25 02:28:11;;;;;;;54.47;24.10;;;7.50;96.10;;;;;;5029993;28;20853;-70
2022/03/25 02:30:39;;;;;;;49.70;24.17;;;7.50;96.20;;;;;;5025425;28;20458;-70
2022/03/25 02:33:07;;;;;;;46.20;23.50;;;7.50;96.40;;;;;;5031709;28;20480;-70
2022/03/25 02:35:41;;;;;;;46.83;23.87;;;7.50;96.40;;;;;;5031842;28;20457;-70
2022/03/25 02:38:09;;;;;;;46.47;23.23;;;7.50;96.40;;;;;;5030734;28;20527;-70
2022/03/25 02:40:37;;;;;;;58.93;25.17;;;7.50;96.50;;;;;;5031491;28;20508;-70
2022/03/25 02:43:05;;;;;;;50.63;24.10;;;7.60;96.60;;;;;;5031440;28;20526;-70
2022/03/25 02:45:32;;;;;;;52.17;22.80;;;7.60;96.50;;;;;;5030406;28;20952;-70
2022/03/25 02:48:00;;;;;;;46.27;22.87;;;7.60;96.50;;;;;;5031263;28;21078;-70
2022/03/25 02:50:27;;;;;;;55.23;22.97;;;7.60;96.60;;;;;;5031091;28;20449;-70
2022/03/25 02:52:54;;;;;;;46.47;23.10;;;7.60;96.60;;;;;;5031349;28;20511;-70
2022/03/25 02:55:21;;;;;;;49.97;24.83;;;7.60;96.70;;;;;;5030977;28;20461;-70
2022/03/25 02:57:49;;;;;;;49.20;23.67;;;7.70;96.70;;;;;;5031107;28;20539;-70
2022/03/25 03:00:16;;;;;;;50.83;25.00;;;7.60;96.70;;;;;;5031080;28;20457;-70
2022/03/25 03:02:43;;;;;;;54.23;23.83;;;7.60;96.80;;;;;;5031175;28;20468;-70
2022/03/25 03:05:10;;;;;;;54.83;22.77;;;7.60;96.80;;;;;;5031034;28;20458;-70
2022/03/25 03:07:37;;;;;;;46.63;22.50;;;7.60;96.80;;;;;;5031023;28;20532;-70
2022/03/25 03:10:05;;;;;;;51.67;22.03;;;7.60;96.90;;;;;;5030968;28;20449;-70
2022/03/25 03:12:32;;;;;;;50.90;23.10;;;7.50;97.00;;;;;;5029787;28;20540;-70
2022/03/25 03:15:00;;;;;;;50.73;23.33;;;7.60;97.20;;;;;;5031090;28;20523;-70
2022/03/25 03:17:27;;;;;;;47.83;23.17;;;7.50;97.30;;;;;;5030970;28;20527;-70
2022/03/25 03:19:54;;;;;;;51.23;23.40;;;7.50;97.50;;;;;;5028830;28;20511;-72
2022/03/25 03:22:21;;;;;;;56.07;24.17;;;7.50;97.40;;;;;;5029175;28;20503;-70
2022/03/25 03:24:47;;;;;;;52.20;21.50;;;7.40;97.60;;;;;;5030584;28;20503;-70
2022/03/25 03:27:14;;;;;;;46.07;23.33;;;7.40;97.70;;;;;;5030791;28;21032;-70
2022/03/25 03:29:41;;;;;;;52.83;23.03;;;7.40;97.70;;;;;;5028532;28;20449;-70
2022/03/25 03:32:09;;;;;;;46.83;22.20;;;7.40;97.80;;;;;;5029841;28;20449;-70
2022/03/25 03:34:37;;;;;;;50.60;22.20;;;7.40;97.90;;;;;;5030138;28;20472;-70
2022/03/25 03:37:04;;;;;;;53.37;24.50;;;7.40;97.90;;;;;;5030600;28;20571;-70
2022/03/25 03:39:31;;;;;;;46.67;22.87;;;7.40;98.00;;;;;;5030679;28;20507;-70
2022/03/25 03:41:58;;;;;;;63.33;23.70;;;7.40;98.10;;;;;;5030766;28;20450;-70
2022/03/25 03:44:25;;;;;;;54.50;23.87;;;7.40;98.20;;;;;;5030190;28;20544;-70
2022/03/25 03:46:52;;;;;;;51.90;22.47;;;7.40;98.20;;;;;;5027906;28;20464;-70
2022/03/25 03:49:20;;;;;;;47.87;22.83;;;7.40;98.40;;;;;;5029744;28;20469;-70
2022/03/25 03:51:47;;;;;;;58.10;22.93;;;7.30;98.40;;;;;;5030484;28;20513;-70
2022/03/25 03:54:14;;;;;;;67.30;23.00;;;7.30;98.60;;;;;;5029825;28;20461;-70
2022/03/25 03:56:40;;;;;;;46.03;22.53;;;7.30;98.70;;;;;;5030591;28;20508;-70
2022/03/25 03:59:07;;;;;;;67.57;24.73;;;7.20;98.80;;;;;;5029979;28;20515;-70
2022/03/25 04:01:34;;;;;;;53.80;22.83;;;7.20;98.90;;;;;;5028762;28;20457;-70
2022/03/25 04:04:00;;;;;;;45.33;21.77;;;7.10;99.00;;;;;;5029307;28;20453;-70
2022/03/25 04:06:29;;;;;;;50.20;22.10;;;7.10;99.10;;;;;;5030126;28;20445;-70
2022/03/25 04:08:56;;;;;;;52.53;23.17;;;7.10;99.40;;;;;;5029866;28;20480;-70
2022/03/25 04:11:22;;;;;;;49.60;23.10;;;7.10;99.50;;;;;;5029983;28;20460;-70
2022/03/25 04:13:49;;;;;;;52.50;23.67;;;7.00;99.60;;;;;;5030129;28;20495;-70
2022/03/25 04:16:16;;;;;;;54.83;22.70;;;7.00;99.80;;;;;;5029719;28;20457;-71
2022/03/25 04:18:42;;;;;;;53.00;22.60;;;6.90;99.90;;;;;;5025805;28;20601;-70
2022/03/25 04:21:09;;;;;;;51.93;23.40;;;6.90;99.90;;;;;;5023636;28;20477;-70
2022/03/25 04:23:37;;;;;;;46.80;22.63;;;6.80;99.90;;;;;;5029994;28;20519;-70
2022/03/25 04:26:05;;;;;;;65.67;23.80;;;6.80;99.90;;;;;;5029353;28;20449;-70
2022/03/25 04:28:31;;;;;;;54.40;23.60;;;6.70;99.90;;;;;;5023885;28;20544;-70
2022/03/25 04:30:58;;;;;;;50.83;22.47;;;6.70;99.90;;;;;;5024183;28;20489;-70
2022/03/25 04:33:25;;;;;;;57.10;24.73;;;6.70;99.90;;;;;;5029079;28;20450;-70
2022/03/25 04:35:51;;;;;;;45.83;22.17;;;6.60;99.90;;;;;;5029622;28;21055;-70
2022/03/25 04:38:18;;;;;;;50.00;22.20;;;6.70;99.90;;;;;;5029296;28;20492;-70
2022/03/25 04:40:46;;;;;;;46.60;21.70;;;6.60;99.90;;;;;;5023059;28;20453;-70
2022/03/25 04:43:13;;;;;;;48.33;22.50;;;6.60;99.90;;;;;;5029531;28;20546;-70
2022/03/25 04:45:40;;;;;;;48.63;21.67;;;6.60;99.90;;;;;;5029701;28;20545;-70
2022/03/25 04:48:07;;;;;;;50.80;22.17;;;6.60;99.90;;;;;;5029519;28;20473;-70
2022/03/25 04:50:34;;;;;;;53.43;22.00;;;6.60;99.90;;;;;;5025485;28;20981;-70
2022/03/25 04:53:00;;;;;;;54.50;24.17;;;6.50;99.90;;;;;;5029739;28;20457;-70
2022/03/25 04:55:27;;;;;;;46.67;22.33;;;6.50;99.90;;;;;;5029351;28;20866;-70
2022/03/25 04:57:55;;;;;;;51.90;22.30;;;6.50;99.90;;;;;;5024533;28;20498;-70
2022/03/25 05:00:22;;;;;;;52.93;22.30;;;6.50;99.90;;;;;;5027922;28;20479;-70
2022/03/25 05:02:48;;;;;;;50.73;22.27;;;6.40;99.90;;;;;;5029559;28;20453;-70
2022/03/25 05:05:15;;;;;;;50.53;22.70;;;6.40;99.90;;;;;;5028355;28;20461;-70
2022/03/25 05:07:43;;;;;;;51.60;23.47;;;6.30;99.90;;;;;;5020139;28;20515;-70
2022/03/25 05:10:11;;;;;;;48.40;22.67;;;6.30;99.90;;;;;;5028971;28;20934;-70
2022/03/25 05:12:38;;;;;;;52.87;22.13;;;6.30;99.90;;;;;;5029756;28;20453;-70
2022/03/25 05:15:07;;;;;;;43.37;22.63;;;6.30;99.90;;;;;;5020795;28;20512;-70
2022/03/25 05:17:34;;;;;;;48.13;22.10;;;6.30;99.90;;;;;;5022715;28;20544;-70
2022/03/25 05:20:05;;;;;;;49.97;23.13;;;6.30;99.90;;;;;;5027147;28;20507;-70
2022/03/25 05:22:32;;;;;;;48.87;20.00;;;6.20;99.90;;;;;;5028510;28;20942;-70
2022/03/25 05:24:58;;;;;;;53.30;23.20;;;6.20;99.90;;;;;;5029106;28;20449;-70
2022/03/25 05:27:25;;;;;;;46.07;21.37;;;6.20;99.90;;;;;;5028534;28;20997;-70
2022/03/25 05:29:52;;;;;;;53.27;22.90;;;6.20;99.90;;;;;;5029026;28;20830;-70
2022/03/25 05:32:20;;;;;;;41.10;20.60;;;6.20;99.90;;;;;;5029103;28;20453;-70
2022/03/25 05:34:47;;;;;;;46.60;22.87;;;6.20;99.90;;;;;;5023615;28;20503;-70
2022/03/25 05:37:13;;;;;;;61.47;23.90;;;6.20;99.90;;;;;;5025594;28;21073;-70
2022/03/25 05:39:41;;;;;;;44.53;21.30;;;6.30;99.90;;;;;;5027621;28;20449;-70
2022/03/25 05:42:08;;;;;;;55.03;22.50;;;6.30;99.90;;;;;;5029236;28;20457;-70
2022/03/25 05:44:34;;;;;;;50.17;22.07;;;6.30;99.90;;;;;;5028602;28;20441;-72
2022/03/25 05:47:01;;;;;;;49.60;23.60;;;6.30;99.90;;;;;;5028737;28;20528;-72
2022/03/25 05:49:29;;;;;;;48.67;22.73;;;6.30;99.90;;;;;;5028774;28;20449;-72
2022/03/25 05:51:56;;;;;;;49.60;21.47;;;6.50;99.90;;;;;;5029407;28;20530;-72
2022/03/25 05:54:22;;;;;;;47.80;20.90;;;6.60;99.90;;;;;;5031585;28;20458;-72
2022/03/25 05:56:49;;;;;;;45.00;20.80;;;6.70;99.90;;;;;;5032088;28;20457;-72
2022/03/25 05:59:16;;;;;;;47.60;22.13;;;6.80;99.90;;;;;;5032924;28;20860;-72
2022/03/25 06:01:42;;;;;;;53.97;23.13;;;7.00;99.90;;;;;;5032513;28;20515;-72
2022/03/25 06:04:09;;;;;;;48.07;21.77;;;7.10;99.90;;;;;;5031943;28;20457;-72
2022/03/25 06:06:37;;;;;;;55.33;22.57;;;7.20;99.90;;;;;;5031673;28;20453;-72
2022/03/25 06:09:04;;;;;;;47.70;22.40;;;7.40;99.90;;;;;;5031953;28;20442;-72
2022/03/25 06:11:31;;;;;;;52.10;21.63;;;7.50;99.90;;;;;;5031639;28;20445;-72
2022/03/25 06:13:57;;;;;;;50.53;22.53;;;7.60;99.90;;;;;;5032167;28;20961;-72
2022/03/25 06:16:24;;;;;;;53.87;22.13;;;7.80;99.90;;;;;;5030749;28;20457;-72
2022/03/25 06:18:52;;;;;;;52.90;23.00;;;8.00;99.90;;;;;;5030971;28;20566;-72
2022/03/25 06:21:20;;;;;;;48.07;20.53;;;8.10;99.90;;;;;;5027725;28;20559;-72
2022/03/25 06:23:48;;;;;;;45.60;22.03;;;8.30;99.90;;;;;;5032004;28;20512;-72
2022/03/25 06:26:15;;;;;;;49.53;21.57;;;8.50;99.90;;;;;;5030482;28;20461;-72
2022/03/25 06:28:41;;;;;;;43.23;22.20;;;8.60;99.90;;;;;;5020149;28;20523;-72
2022/03/25 06:31:09;;;;;;;48.47;22.77;;;8.80;99.90;;;;;;5030598;28;20454;-72
2022/03/25 06:33:37;;;;;;;55.87;23.43;;;9.00;99.90;;;;;;5031360;28;20454;-72
2022/03/25 06:36:04;;;;;;;52.37;22.83;;;9.20;99.90;;;;;;5031733;28;20864;-72
2022/03/25 06:38:31;;;;;;;47.37;22.40;;;9.30;99.90;;;;;;5024332;28;20889;-72
2022/03/25 06:41:00;;;;;;;49.47;22.50;;;9.50;99.90;;;;;;5031556;28;20500;-72
2022/03/25 06:43:27;;;;;;;45.80;22.30;;;9.60;99.90;;;;;;5030917;28;20845;-72
2022/03/25 06:45:54;;;;;;;48.50;23.57;;;9.80;99.90;;;;;;5026684;28;20465;-72
2022/03/25 06:48:21;;;;;;;48.07;22.70;;;9.90;99.40;;;;;;5031181;28;20625;-72
2022/03/25 06:50:48;;;;;;;47.23;21.40;;;10.10;98.90;;;;;;5030473;28;20457;-72
2022/03/25 06:53:15;;;;;;;57.63;24.80;;;10.20;98.50;;;;;;5031749;28;20511;-72
2022/03/25 06:55:43;;;;;;;46.07;21.70;;;10.30;98.50;;;;;;5031465;28;20953;-72
2022/03/25 06:58:13;;;;;;;51.23;24.20;;;10.50;98.50;;;;;;5030808;28;20492;-72
2022/03/25 07:00:40;;;;;;;44.40;23.50;;;10.80;98.00;;;;;;5031202;28;20453;-73
2022/03/25 07:03:08;;;;;;;48.43;22.90;;;11.00;97.40;;;;;;5029895;28;20457;-73
2022/03/25 07:05:36;;;;;;;58.23;23.47;;;11.00;97.10;;;;;;5028818;28;20484;-73
2022/03/25 07:08:04;;;;;;;56.13;24.10;;;11.20;97.10;;;;;;5027184;28;20850;-73
2022/03/25 07:10:31;;;;;;;53.53;23.60;;;11.40;96.70;;;;;;5025279;28;20452;-74
2022/03/25 07:12:59;;;;;;;53.50;24.33;;;11.60;96.40;;;;;;5030306;28;20453;-73
2022/03/25 07:15:27;;;;;;;52.53;23.93;;;11.60;96.00;;;;;;5030781;28;20454;-73
2022/03/25 07:17:53;;;;;;;44.07;21.50;;;11.50;96.10;;;;;;5027628;28;20535;-73
2022/03/25 07:20:23;;;;;;;45.37;23.20;;;11.50;96.30;;;;;;5030755;28;20557;-73
2022/03/25 07:22:51;;;;;;;46.10;21.87;;;11.40;96.40;;;;;;5027565;28;20504;-73
2022/03/25 07:25:19;;;;;;;47.60;22.67;;;11.20;96.40;;;;;;5026667;28;20460;-73
2022/03/25 07:27:47;;;;;;;52.57;24.53;;;11.20;96.80;;;;;;5025665;28;20527;-73
2022/03/25 07:30:15;;;;;;;46.37;23.73;;;11.20;96.70;;;;;;5022449;28;20495;-73
2022/03/25 07:32:44;;;;;;;48.40;24.40;;;11.30;97.00;;;;;;5025151;28;20584;-73
2022/03/25 07:35:12;;;;;;;60.70;25.00;;;11.40;97.10;;;;;;5027182;28;20885;-73
2022/03/25 07:37:39;;;;;;;49.30;23.93;;;11.70;97.00;;;;;;5027248;28;20543;-74
2022/03/25 07:40:08;;;;;;;55.73;24.77;;;11.80;96.60;;;;;;5026927;28;20557;-74
2022/03/25 07:42:35;;;;;;;54.27;25.07;;;11.90;96.20;;;;;;5023807;28;20479;-74
2022/03/25 07:45:02;;;;;;;52.23;25.53;;;12.00;96.40;;;;;;5027763;28;21015;-73
2022/03/25 07:47:32;;;;;;;50.10;25.73;;;12.10;96.00;;;;;;5024268;28;20850;-73
2022/03/25 07:50:00;;;;;;;53.67;24.87;;;12.20;96.20;;;;;;5023980;28;20462;-74
2022/03/25 07:52:26;;;;;;;50.83;26.37;;;12.30;96.10;;;;;;5028539;28;20450;-73
2022/03/25 07:54:53;;;;;;;60.60;26.33;;;12.40;95.60;;;;;;5023583;28;20603;-74
2022/03/25 07:57:21;;;;;;;51.57;24.83;;;12.60;95.90;;;;;;5022539;28;21007;-74
2022/03/25 07:59:47;;;;;;;55.63;26.10;;;12.80;95.90;;;;;;5023497;28;20991;-74
2022/03/25 08:02:14;;;;;;;45.57;26.73;;;13.00;96.20;;;;;;5022765;28;20449;-73
2022/03/25 08:04:41;;;;;;;52.17;25.10;;;13.30;95.40;;;;;;5026949;28;20548;-74
2022/03/25 08:07:09;;;;;;;56.90;25.43;;;13.40;94.80;;;;;;5022337;28;20480;-74
2022/03/25 08:09:35;;;;;;;58.90;24.73;;;13.50;94.90;;;;;;5024950;28;21916;-74
2022/03/25 08:12:02;;;;;;;49.97;25.57;;;13.60;95.00;;;;;;5025047;28;21040;-74
2022/03/25 08:14:29;;;;;;;55.23;25.70;;;13.80;94.70;;;;;;5029207;28;20460;-75
2022/03/25 08:16:56;;;;;;;59.27;25.83;;;14.00;94.10;;;;;;5025358;28;20494;-74
2022/03/25 08:19:22;;;;;;;52.27;25.20;;;14.20;94.00;;;;;;5024326;28;20493;-74
2022/03/25 08:21:49;;;;;;;49.40;26.63;;;14.30;93.70;;;;;;5023793;28;20509;-75
2022/03/25 08:29:46;;;;;;;53.50;26.50;;;14.80;93.20;;;;;;5027606;28;20499;-72
2022/03/25 08:32:13;;;;;;;56.20;28.30;;;14.80;93.30;;;;;;5029441;28;20570;-73
2022/03/25 08:34:40;;;;;;;55.77;27.40;;;14.90;92.80;;;;;;5028984;28;20515;-74
2022/03/25 08:37:06;;;;;;;69.97;29.43;;;15.00;93.20;;;;;;5029312;28;20894;-74
2022/03/25 08:39:34;;;;;;;66.13;28.00;;;15.10;93.00;;;;;;5029333;28;20564;-74
2022/03/25 08:42:02;;;;;;;54.50;28.43;;;15.40;92.90;;;;;;5027425;28;20540;-74
2022/03/25 08:44:29;;;;;;;58.37;28.20;;;15.50;93.00;;;;;;5024833;28;20483;-75
2022/03/25 08:46:56;;;;;;;50.50;28.40;;;15.40;92.70;;;;;;5027838;28;20453;-74
2022/03/25 08:49:22;;;;;;;55.63;29.60;;;15.40;92.80;;;;;;5028846;28;20464;-75
2022/03/25 08:51:49;;;;;;;58.77;29.30;;;15.60;93.20;;;;;;5030144;28;20461;-75
2022/03/25 08:54:18;;;;;;;59.10;31.00;;;15.60;91.90;;;;;;5022456;28;20446;-74
2022/03/25 08:56:47;;;;;;;56.67;28.80;;;15.70;92.60;;;;;;5010589;28;20994;-75
2022/03/25 08:59:14;;;;;;;52.80;27.80;;;15.90;92.30;;;;;;5010680;28;20486;-75
2022/03/25 09:01:41;;;;;;;52.27;28.13;;;16.10;91.90;;;;;;5010799;28;20873;-75
2022/03/25 09:04:08;;;;;;;53.90;29.53;;;16.30;92.00;;;;;;5010206;28;20532;-75
2022/03/25 09:06:35;;;;;;;59.10;30.07;;;16.40;91.50;;;;;;5010937;28;20462;-75
2022/03/25 09:09:02;;;;;;;58.37;29.73;;;16.60;91.50;;;;;;5010789;28;20528;-75
2022/03/25 09:11:30;;;;;;;50.33;29.90;;;16.80;91.10;;;;;;5010678;28;20872;-75
2022/03/25 09:13:58;;;;;;;59.23;30.50;;;17.00;91.00;;;;;;5011008;28;20450;-75
2022/03/25 09:16:25;;;;;;;58.87;30.00;;;17.00;91.00;;;;;;5010736;28;20490;-75
2022/03/25 09:18:52;;;;;;;50.97;29.13;;;17.00;91.10;;;;;;5010280;28;20494;-75
2022/03/25 09:21:19;;;;;;;58.20;30.90;;;17.20;91.00;;;;;;5021661;28;20472;-75
2022/03/25 09:23:45;;;;;;;56.60;31.27;;;17.20;90.20;;;;;;5029542;28;20545;-75
2022/03/25 09:26:12;;;;;;;63.90;30.90;;;17.20;90.50;;;;;;5030072;28;20445;-75
2022/03/25 09:28:39;;;;;;;63.67;30.77;;;17.40;90.40;;;;;;5023746;28;20444;-75
2022/03/25 09:31:07;;;;;;;51.60;30.40;;;17.50;91.10;;;;;;5014239;28;20503;-75
2022/03/25 09:33:33;;;;;;;68.77;31.10;;;17.90;90.30;;;;;;5013994;28;20509;-75
2022/03/25 09:36:00;;;;;;;53.10;31.03;;;17.90;88.90;;;;;;5013973;28;20454;-75
2022/03/25 09:38:27;;;;;;;64.53;33.00;;;17.90;88.90;;;;;;5013853;28;20491;-75
2022/03/25 09:40:54;;;;;;;63.53;31.30;;;17.90;90.40;;;;;;5031256;28;20431;-75
2022/03/25 09:43:22;;;;;;;63.07;31.93;;;17.90;89.50;;;;;;5033225;28;20449;-75
2022/03/25 09:45:49;;;;;;;54.90;30.40;;;17.90;89.20;;;;;;5033830;28;20449;-75
2022/03/25 09:48:16;;;;;;;54.93;31.17;;;18.10;89.50;;;;;;5033293;28;20783;-75
2022/03/25 09:50:43;;;;;;;57.80;29.80;;;18.10;88.60;;;;;;5033484;28;20503;-75
2022/03/25 09:53:10;;;;;;;53.17;32.57;;;18.10;87.50;;;;;;5033064;28;20990;-75
2022/03/25 09:55:40;;;;;;;60.43;31.80;;;18.20;89.00;;;;;;5033315;28;20426;-75
2022/03/25 09:58:07;;;;;;;57.13;30.50;;;18.30;87.90;;;;;;5033211;28;20452;-75
2022/03/25 10:00:34;;;;;;;63.80;32.03;;;18.30;87.90;;;;;;5033440;28;20862;-75
2022/03/25 10:03:01;;;;;;;63.20;31.93;;;18.50;88.40;;;;;;5033285;28;20449;-75
2022/03/25 10:05:29;;;;;;;64.70;33.40;;;18.60;88.10;;;;;;5033288;28;20453;-75
2022/03/25 10:07:55;;;;;;;55.70;32.13;;;18.90;88.40;;;;;;5033375;28;20515;-75
2022/03/25 10:10:24;;;;;;;59.27;32.40;;;19.20;89.70;;;;;;5033038;28;20531;-75
2022/03/25 10:12:58;;;;;;;65.07;32.90;;;19.60;87.30;;;;;;5033552;28;20441;-75
2022/03/25 10:15:26;;;;;;;62.03;31.80;;;19.90;86.40;;;;;;5032964;28;20448;-75
2022/03/25 10:17:55;;;;;;;58.30;32.13;;;20.00;85.30;;;;;;5033184;28;20988;-75
2022/03/25 10:20:24;;;;;;;59.60;33.37;;;20.00;86.10;;;;;;5027178;28;20516;-75
2022/03/25 10:23:14;;;;;;;59.70;31.50;;;20.10;85.50;;;;;;5013140;28;20457;-75
2022/03/25 10:25:44;;;;;;;58.20;31.60;;;20.40;85.90;;;;;;5008754;28;20458;-75
2022/03/25 10:28:28;;;;;;;64.47;33.47;;;20.50;85.10;;;;;;5019254;28;20952;-75
2022/03/25 10:30:57;;;;;;;64.47;35.07;;;20.80;82.50;;;;;;5033444;28;20456;-75
2022/03/25 10:33:28;;;;;;;58.23;32.33;;;20.90;82.40;;;;;;5032444;28;20938;-75
2022/03/25 10:35:56;;;;;;;60.60;34.07;;;21.20;77.90;;;;;;5032512;28;20449;-75
2022/03/25 10:38:25;;;;;;;60.80;33.87;;;21.10;76.70;;;;;;5032042;28;20523;-75
2022/03/25 10:40:53;;;;;;;57.80;33.90;;;20.70;75.30;;;;;;5032408;28;20424;-75
2022/03/25 10:43:20;;;;;;;57.90;34.47;;;20.50;77.00;;;;;;5032647;28;20954;-75
2022/03/25 10:45:48;;;;;;;53.17;33.40;;;20.30;75.70;;;;;;5032552;28;20464;-75
2022/03/25 10:48:16;;;;;;;68.17;35.37;;;20.40;79.40;;;;;;5032693;28;20477;-75
2022/03/25 10:51:03;;;;;;;69.67;34.23;;;20.70;78.20;;;;;;5032448;28;20479;-75
2022/03/25 10:53:33;;;;;;;60.03;34.80;;;21.10;76.40;;;;;;5032032;28;20461;-75
2022/03/25 10:56:01;;;;;;;65.17;34.37;;;21.40;75.30;;;;;;5032420;28;20445;-75
2022/03/25 10:58:28;;;;;;;65.27;36.07;;;21.40;76.80;;;;;;5032443;28;20599;-75
2022/03/25 11:00:55;;;;;;;60.00;34.00;;;21.30;73.30;;;;;;5032643;28;20449;-75
2022/03/25 11:03:23;;;;;;;57.67;34.27;;;21.50;76.20;;;;;;5032138;28;20453;-75
2022/03/25 11:05:51;;;;;;;64.30;34.13;;;21.40;74.00;;;;;;5032159;28;20937;-75
2022/03/25 11:08:19;;;;;;;62.83;35.17;;;21.30;74.90;;;;;;5031884;28;20885;-75
2022/03/25 11:10:47;;;;;;;70.27;36.13;;;21.60;76.20;;;;;;5032171;28;20449;-75
2022/03/25 11:13:13;;;;;;;59.00;34.83;;;21.90;74.10;;;;;;5032013;28;20512;-75
2022/03/25 11:15:40;;;;;;;57.47;33.70;;;21.70;71.40;;;;;;5031986;28;20511;-75
2022/03/25 11:18:07;;;;;;;57.83;33.77;;;21.60;74.50;;;;;;5031978;28;20443;-75
2022/03/25 11:20:34;;;;;;;59.60;34.27;;;21.60;72.10;;;;;;5031443;28;20477;-75
2022/03/25 11:23:12;;;;;;;62.33;34.77;;;21.30;69.40;;;;;;5031503;28;20682;-75
2022/03/25 11:25:41;;;;;;;59.40;34.70;;;21.20;73.40;;;;;;5031558;28;20999;-76
2022/03/25 11:28:13;;;;;;;55.23;34.30;;;21.40;72.00;;;;;;5031960;28;20469;-76
2022/03/25 11:30:40;;;;;;;59.93;35.33;;;21.70;67.60;;;;;;5031977;28;20537;-76
2022/03/25 11:33:08;;;;;;;54.57;33.47;;;21.60;68.70;;;;;;5031750;28;20445;-76
2022/03/25 11:35:36;;;;;;;63.60;35.00;;;21.40;70.80;;;;;;5031750;28;20524;-76
2022/03/25 11:38:22;;;;;;;55.77;32.97;;;21.40;67.50;;;;;;5031819;28;20444;-76
2022/03/25 11:40:51;;;;;;;58.00;35.07;;;21.50;67.10;;;;;;5031350;28;20487;-76
2022/03/25 11:43:21;;;;;;;58.00;35.80;;;21.50;67.70;;;;;;5031191;28;20964;-76
2022/03/25 11:46:04;;;;;;;64.23;33.73;;;21.50;70.40;;;;;;5031783;28;21012;-76
2022/03/25 11:48:48;;;;;;;58.03;35.60;;;21.60;68.70;;;;;;5031533;28;20512;-76
2022/03/25 11:51:34;;;;;;;58.57;35.53;;;21.90;67.70;;;;;;5030245;28;20445;-76
2022/03/25 11:54:03;;;;;;;61.03;34.90;;;21.80;68.40;;;;;;5030833;28;20504;-76
2022/03/25 11:56:49;;;;;;;63.83;34.33;;;21.60;69.80;;;;;;5031190;28;20449;-76
2022/03/25 11:59:18;;;;;;;63.27;36.50;;;21.90;66.00;;;;;;5031136;28;20508;-76
2022/03/25 12:01:44;;;;;;;57.87;34.17;;;21.80;67.50;;;;;;5031011;28;20549;-76
2022/03/25 12:04:14;;;;;;;59.90;33.90;;;21.80;64.10;;;;;;5031139;28;20811;-76
2022/03/25 12:07:01;;;;;;;58.00;34.70;;;21.50;64.80;;;;;;5030565;28;20469;-76
2022/03/25 12:09:35;;;;;;;65.93;35.83;;;21.80;67.30;;;;;;5031162;28;20460;-76
2022/03/25 12:12:02;;;;;;;66.20;33.93;;;21.90;68.30;;;;;;5031267;28;20471;-76
2022/03/25 12:14:32;;;;;;;65.67;34.90;;;22.20;65.40;;;;;;5030987;28;20472;-75
2022/03/25 12:17:01;;;;;;;55.63;32.70;;;22.40;66.30;;;;;;5031069;28;20481;-76
2022/03/25 12:19:44;;;;;;;62.23;34.67;;;22.10;65.70;;;;;;5031163;28;20495;-75
2022/03/25 12:22:28;;;;;;;58.30;34.87;;;22.20;62.60;;;;;;5011139;28;20862;-76
2022/03/25 12:24:56;;;;;;;58.47;34.07;;;22.40;64.10;;;;;;5010976;28;20462;-76
2022/03/25 12:27:24;;;;;;;69.10;36.70;;;22.50;63.60;;;;;;5010741;28;20482;-76
2022/03/25 12:29:54;;;;;;;55.50;34.57;;;22.70;64.70;;;;;;5031130;28;20453;-76
2022/03/25 12:32:22;;;;;;;63.60;35.40;;;22.60;64.30;;;;;;5030988;28;20444;-76
2022/03/25 12:34:55;;;;;;;64.10;35.90;;;22.70;64.10;;;;;;5030101;28;20446;-76
2022/03/25 12:37:28;;;;;;;58.60;35.63;;;22.70;62.70;;;;;;5030700;28;20460;-76
2022/03/25 12:39:54;;;;;;;57.60;36.70;;;22.60;62.60;;;;;;5030699;28;21162;-76
2022/03/25 12:42:21;;;;;;;61.50;34.67;;;22.40;62.10;;;;;;5030614;28;20496;-76